Time;durP1;ratioP1;P1;durP2;ratioP2;P2;SDS_P1;SDS_P2;PMS_P1;PMS_P2;Temp;Humidity;BMP_temperature;BMP_pressure;BME280_temperature;BME280_humidity;BME280_pressure;Samples;Min_cycle;Max_cycle;Signal;HPM_P1;HPM_P2
2022/02/16 00:01:19;;;;;;;;;;;9.00;99.90;;;;;;5172552;27;42642;-80
2022/02/16 00:03:46;;;;;;;;;;;9.00;99.90;;;;;;5172703;27;44127;-80
2022/02/16 00:06:13;;;;;;;;;;;9.00;99.90;;;;;;5171420;27;43451;-80
2022/02/16 00:08:40;;;;;;;;;;;9.00;99.90;;;;;;5172731;27;43778;-80
2022/02/16 00:11:08;;;;;;;;;;;9.00;99.90;;;;;;5172104;27;44251;-80
2022/02/16 00:13:35;;;;;;;;;;;9.00;99.90;;;;;;5171590;27;42375;-80
2022/02/16 00:16:08;;;;;;;;;;;9.00;99.90;;;;;;5172698;27;44150;-80
2022/02/16 00:18:36;;;;;;;;;;;9.00;99.90;;;;;;5172825;27;43795;-80
2022/02/16 00:21:03;;;;;;;;;;;9.00;99.90;;;;;;5172102;27;43800;-80
2022/02/16 00:23:30;;;;;;;;;;;9.00;99.90;;;;;;5172656;27;43068;-80
2022/02/16 00:26:06;;;;;;;;;;;9.00;99.90;;;;;;5171933;27;44720;-80
2022/02/16 00:28:33;;;;;;;;;;;9.00;99.90;;;;;;5171374;27;43982;-80
2022/02/16 00:31:00;;;;;;;;;;;9.00;99.90;;;;;;5172361;27;44379;-80
2022/02/16 00:33:27;;;;;;;;;;;9.00;99.90;;;;;;5172727;27;44216;-80
2022/02/16 00:35:54;;;;;;;;;;;9.00;99.90;;;;;;5173326;27;43525;-80
2022/02/16 00:38:21;;;;;;;;;;;9.00;99.90;;;;;;5172777;27;44264;-80
2022/02/16 00:40:48;;;;;;;;;;;9.00;99.90;;;;;;5172642;27;46006;-80
2022/02/16 00:43:18;;;;;;;;;;;9.00;99.90;;;;;;5174042;27;44735;-80
2022/02/16 00:45:45;;;;;;;;;;;9.00;99.90;;;;;;5172555;27;44776;-80
2022/02/16 00:48:14;;;;;;;;;;;9.00;99.90;;;;;;5174371;27;45222;-80
2022/02/16 00:50:41;;;;;;;;;;;9.00;99.90;;;;;;5172614;27;43896;-80
2022/02/16 00:53:08;;;;;;;;;;;8.90;99.90;;;;;;5174498;27;43260;-80
2022/02/16 00:55:35;;;;;;;;;;;9.00;99.90;;;;;;5173875;27;43519;-80
2022/02/16 00:58:08;;;;;;;;;;;9.00;99.90;;;;;;5174344;27;45542;-80
2022/02/16 01:00:35;;;;;;;;;;;9.00;99.90;;;;;;5172769;27;43529;-80
2022/02/16 01:03:03;;;;;;;;;;;9.00;99.90;;;;;;5173790;27;43335;-80
2022/02/16 01:05:30;;;;;;;;;;;9.00;99.90;;;;;;5172426;27;43064;-80
2022/02/16 01:07:58;;;;;;;;;;;9.00;99.90;;;;;;5173796;27;44109;-80
2022/02/16 01:10:25;;;;;;;;;;;9.00;99.90;;;;;;5244828;27;43954;-79
2022/02/16 01:12:52;;;;;;;;;;;9.00;99.90;;;;;;5172510;27;43229;-80
2022/02/16 01:15:19;;;;;;;;;;;9.00;99.90;;;;;;5174170;27;43250;-80
2022/02/16 01:17:46;;;;;;;;;;;9.00;99.90;;;;;;5171975;27;44302;-80
2022/02/16 01:20:13;;;;;;;;;;;9.00;99.90;;;;;;5172995;27;44277;-80
2022/02/16 01:22:40;;;;;;;;;;;9.00;99.90;;;;;;5173399;27;43828;-80
2022/02/16 01:25:07;;;;;;;;;;;9.00;99.90;;;;;;5244312;27;44965;-80
2022/02/16 01:27:34;;;;;;;;;;;9.00;99.90;;;;;;5174140;27;43521;-80
2022/02/16 01:30:02;;;;;;;;;;;9.00;99.90;;;;;;5173612;27;44739;-80
2022/02/16 01:32:29;;;;;;;;;;;9.00;99.90;;;;;;5172326;27;44085;-80
2022/02/16 01:34:56;;;;;;;;;;;9.00;99.90;;;;;;5173873;27;43278;-80
2022/02/16 01:37:23;;;;;;;;;;;9.00;99.90;;;;;;5173636;27;43309;-80
2022/02/16 01:39:51;;;;;;;;;;;9.00;99.90;;;;;;5173986;27;43230;-80
2022/02/16 01:42:19;;;;;;;;;;;9.00;99.90;;;;;;5174025;27;44024;-80
2022/02/16 01:44:46;;;;;;;;;;;9.00;99.90;;;;;;5173832;27;43241;-80
2022/02/16 01:47:13;;;;;;;;;;;9.00;99.90;;;;;;5172256;27;43877;-80
2022/02/16 01:49:40;;;;;;;;;;;9.00;99.90;;;;;;5173913;27;43007;-80
2022/02/16 01:52:09;;;;;;;;;;;9.00;99.90;;;;;;5173947;27;45472;-80
2022/02/16 01:54:36;;;;;;;;;;;9.00;99.90;;;;;;5172244;27;44298;-80
2022/02/16 01:57:06;;;;;;;;;;;9.00;99.90;;;;;;5172296;27;43878;-80
2022/02/16 01:59:34;;;;;;;;;;;9.00;99.90;;;;;;5172694;27;44289;-80
2022/02/16 02:02:01;;;;;;;;;;;9.00;99.90;;;;;;5171933;27;44100;-80
2022/02/16 02:04:29;;;;;;;;;;;9.00;99.90;;;;;;5173194;27;45527;-80
2022/02/16 02:06:57;;;;;;;;;;;9.00;99.90;;;;;;5172123;27;43493;-80
2022/02/16 02:09:24;;;;;;;;;;;9.00;99.90;;;;;;5173364;27;43286;-80
2022/02/16 02:11:51;;;;;;;;;;;9.00;99.90;;;;;;5172847;27;43981;-80
2022/02/16 02:14:18;;;;;;;;;;;9.00;99.90;;;;;;5173974;27;43520;-80
2022/02/16 02:16:45;;;;;;;;;;;9.00;99.90;;;;;;5173297;27;43682;-80
2022/02/16 02:19:12;;;;;;;;;;;9.00;99.90;;;;;;5172509;27;45640;-80
2022/02/16 02:21:39;;;;;;;;;;;9.00;99.90;;;;;;5173983;27;43933;-80
2022/02/16 02:24:06;;;;;;;;;;;9.00;99.90;;;;;;5172021;27;42582;-80
2022/02/16 02:26:33;;;;;;;;;;;9.00;99.90;;;;;;5173215;27;43161;-80
2022/02/16 02:29:01;;;;;;;;;;;9.00;99.90;;;;;;5173815;27;43942;-80
2022/02/16 02:31:32;;;;;;;;;;;9.00;99.90;;;;;;5173941;27;44370;-80
2022/02/16 02:34:00;;;;;;;;;;;9.00;99.90;;;;;;5171884;27;44037;-80
2022/02/16 02:36:27;;;;;;;;;;;9.00;99.90;;;;;;5172154;27;42606;-80
2022/02/16 02:38:55;;;;;;;;;;;9.00;99.90;;;;;;5173214;27;44182;-80
2022/02/16 02:41:22;;;;;;;;;;;9.00;99.90;;;;;;5173192;27;43230;-80
2022/02/16 02:43:50;;;;;;;;;;;9.00;99.90;;;;;;5171801;27;44652;-81
2022/02/16 02:46:18;;;;;;;;;;;9.00;99.90;;;;;;5173033;27;43165;-80
2022/02/16 02:48:45;;;;;;;;;;;9.00;99.90;;;;;;5172474;27;44197;-81
2022/02/16 02:51:15;;;;;;;;;;;9.00;99.90;;;;;;5171849;27;42675;-80
2022/02/16 02:53:43;;;;;;;;;;;9.00;99.90;;;;;;5172451;27;45512;-80
2022/02/16 02:56:10;;;;;;;;;;;9.00;99.90;;;;;;5171688;27;44920;-80
2022/02/16 02:58:37;;;;;;;;;;;9.00;99.90;;;;;;5172131;27;43956;-80
2022/02/16 03:01:05;;;;;;;;;;;9.00;99.90;;;;;;5171897;27;43117;-80
2022/02/16 03:03:35;;;;;;;;;;;9.00;99.90;;;;;;5171526;27;44372;-80
2022/02/16 03:06:03;;;;;;;;;;;9.00;99.90;;;;;;5171973;27;43375;-80
2022/02/16 03:08:30;;;;;;;;;;;9.00;99.90;;;;;;5171715;27;44071;-80
2022/02/16 03:10:58;;;;;;;;;;;9.00;99.90;;;;;;5173497;27;43943;-80
2022/02/16 03:13:25;;;;;;;;;;;9.00;99.90;;;;;;5171793;27;44349;-80
2022/02/16 03:15:52;;;;;;;;;;;8.90;99.90;;;;;;5173360;27;44493;-80
2022/02/16 03:18:22;;;;;;;;;;;8.90;99.90;;;;;;5171684;27;43567;-80
2022/02/16 03:20:50;;;;;;;;;;;8.90;99.90;;;;;;5172413;27;45641;-80
2022/02/16 03:23:18;;;;;;;;;;;8.90;99.90;;;;;;5172960;27;43336;-80
2022/02/16 03:25:47;;;;;;;;;;;8.90;99.90;;;;;;5172964;27;43010;-80
2022/02/16 03:28:15;;;;;;;;;;;8.90;99.90;;;;;;5172939;27;42729;-80
2022/02/16 03:30:42;;;;;;;;;;;9.00;99.90;;;;;;5171696;27;43530;-80
2022/02/16 03:33:29;;;;;;;;;;;9.00;99.90;;;;;;5172537;27;43320;-80
2022/02/16 03:35:57;;;;;;;;;;;9.00;99.90;;;;;;5173343;27;44218;-80
2022/02/16 03:38:24;;;;;;;;;;;9.00;99.90;;;;;;5172215;27;43285;-80
2022/02/16 03:40:53;;;;;;;;;;;9.00;99.90;;;;;;5172866;27;43127;-80
2022/02/16 03:43:20;;;;;;;;;;;8.90;99.90;;;;;;5172814;27;43274;-80
2022/02/16 03:45:47;;;;;;;;;;;9.00;99.90;;;;;;5171466;27;43304;-80
2022/02/16 03:48:14;;;;;;;;;;;9.00;99.90;;;;;;5171540;27;43220;-80
2022/02/16 03:50:41;;;;;;;;;;;9.00;99.90;;;;;;5172805;27;43030;-80
2022/02/16 03:53:08;;;;;;;;;;;9.00;99.90;;;;;;5243857;27;42292;-80
2022/02/16 03:55:36;;;;;;;;;;;9.00;99.90;;;;;;5172825;27;44037;-80
2022/02/16 03:58:03;;;;;;;;;;;9.00;99.90;;;;;;5171600;27;43981;-80
2022/02/16 04:00:30;;;;;;;;;;;9.00;99.90;;;;;;5171534;27;43395;-80
2022/02/16 04:02:57;;;;;;;;;;;8.90;99.90;;;;;;5171511;27;43300;-80
2022/02/16 04:05:24;;;;;;;;;;;9.00;99.90;;;;;;5173236;27;45482;-80
2022/02/16 04:07:51;;;;;;;;;;;9.00;99.90;;;;;;5174193;27;43536;-80
2022/02/16 04:10:18;;;;;;;;;;;9.00;99.90;;;;;;5174174;27;42766;-80
2022/02/16 04:12:45;;;;;;;;;;;9.00;99.90;;;;;;5174321;27;43152;-80
2022/02/16 04:15:14;;;;;;;;;;;9.00;99.90;;;;;;5172998;27;43095;-80
2022/02/16 04:17:41;;;;;;;;;;;9.00;99.90;;;;;;5172788;27;44620;-81
2022/02/16 04:20:09;;;;;;;;;;;9.00;99.90;;;;;;5175012;27;19992;-80
2022/02/16 04:22:43;;;;;;;;;;;9.00;99.90;;;;;;5173310;27;43850;-81
2022/02/16 04:25:10;;;;;;;;;;;9.00;99.90;;;;;;5173376;27;43639;-80
2022/02/16 04:27:37;;;;;;;;;;;9.00;99.90;;;;;;5172899;27;42627;-80
2022/02/16 04:30:05;;;;;;;;;;;9.00;99.90;;;;;;5172799;27;43278;-80
2022/02/16 04:32:34;;;;;;;;;;;9.00;99.90;;;;;;5156009;27;44354;-80
2022/02/16 04:35:01;;;;;;;;;;;9.00;99.90;;;;;;5174063;27;44201;-80
2022/02/16 04:37:28;;;;;;;;;;;9.00;99.90;;;;;;5174018;27;42924;-80
2022/02/16 04:39:55;;;;;;;;;;;9.00;99.90;;;;;;5174738;27;44174;-80
2022/02/16 04:42:22;;;;;;;;;;;9.00;99.90;;;;;;5172856;27;44322;-80
2022/02/16 04:44:49;;;;;;;;;;;9.00;99.90;;;;;;5174227;27;43347;-80
2022/02/16 04:47:16;;;;;;;;;;;9.00;99.90;;;;;;5172557;27;44082;-80
2022/02/16 04:49:43;;;;;;;;;;;9.00;99.90;;;;;;5173122;27;44870;-80
2022/02/16 04:52:10;;;;;;;;;;;9.00;99.90;;;;;;5245380;27;43370;-80
2022/02/16 04:54:39;;;;;;;;;;;9.00;99.90;;;;;;5173883;27;44302;-80
2022/02/16 04:57:06;;;;;;;;;;;9.00;99.90;;;;;;5172637;27;43521;-80
2022/02/16 04:59:33;;;;;;;;;;;9.00;99.90;;;;;;5172511;27;43442;-80
2022/02/16 05:02:00;;;;;;;;;;;9.00;99.90;;;;;;5172521;27;45360;-80
2022/02/16 05:04:28;;;;;;;;;;;9.00;99.90;;;;;;5172623;27;44008;-80
2022/02/16 05:06:58;;;;;;;;;;;9.00;99.90;;;;;;5174408;27;43209;-80
2022/02/16 05:09:25;;;;;;;;;;;9.00;99.90;;;;;;5172500;27;43313;-80
2022/02/16 05:11:52;;;;;;;;;;;9.00;99.90;;;;;;5172430;27;45216;-80
2022/02/16 05:14:19;;;;;;;;;;;9.00;99.90;;;;;;5172924;27;45770;-80
2022/02/16 05:16:46;;;;;;;;;;;9.00;99.90;;;;;;5171996;27;43315;-80
2022/02/16 05:19:14;;;;;;;;;;;9.00;99.90;;;;;;5173733;27;42673;-81
2022/02/16 05:21:41;;;;;;;;;;;9.00;99.90;;;;;;5174310;27;43533;-80
2022/02/16 05:24:10;;;;;;;;;;;9.00;99.90;;;;;;5173028;27;43918;-80
2022/02/16 05:26:38;;;;;;;;;;;9.00;99.90;;;;;;5244306;27;45233;-80
2022/02/16 05:29:06;;;;;;;;;;;9.00;99.90;;;;;;5172796;27;44247;-81
2022/02/16 05:31:33;;;;;;;;;;;9.00;99.90;;;;;;5172367;27;44179;-80
2022/02/16 05:34:00;;;;;;;;;;;9.00;99.90;;;;;;5173628;27;44150;-80
2022/02/16 05:36:30;;;;;;;;;;;9.00;99.90;;;;;;5244422;27;44217;-79
2022/02/16 05:38:57;;;;;;;;;;;9.00;99.90;;;;;;5172322;27;42426;-80
2022/02/16 05:41:24;;;;;;;;;;;9.00;99.90;;;;;;5173842;27;43164;-80
2022/02/16 05:43:53;;;;;;;;;;;9.00;99.90;;;;;;5172352;27;42996;-80
2022/02/16 05:46:21;;;;;;;;;;;9.10;99.90;;;;;;5172194;27;42989;-80
2022/02/16 05:48:48;;;;;;;;;;;9.00;99.90;;;;;;5172063;27;44568;-80
2022/02/16 05:51:16;;;;;;;;;;;9.00;99.90;;;;;;5172372;27;43093;-80
2022/02/16 05:53:43;;;;;;;;;;;9.10;99.90;;;;;;5172432;27;45983;-80
2022/02/16 05:56:10;;;;;;;;;;;9.10;99.90;;;;;;5173487;27;43564;-80
2022/02/16 05:58:37;;;;;;;;;;;9.00;99.90;;;;;;5172199;27;44049;-80
2022/02/16 06:01:05;;;;;;;;;;;9.00;99.90;;;;;;5173462;27;44297;-81
2022/02/16 06:03:32;;;;;;;;;;;9.00;99.90;;;;;;5173261;27;44058;-80
2022/02/16 06:05:59;;;;;;;;;;;9.10;99.90;;;;;;5173908;27;44254;-81
2022/02/16 06:08:26;;;;;;;;;;;9.10;99.90;;;;;;5173393;27;44182;-81
2022/02/16 06:10:56;;;;;;;;;;;9.10;99.90;;;;;;5172696;27;43840;-81
2022/02/16 06:13:23;;;;;;;;;;;9.10;99.90;;;;;;5173409;27;42685;-81
2022/02/16 06:15:52;;;;;;;;;;;9.00;99.90;;;;;;5172118;27;43533;-80
2022/02/16 06:18:19;;;;;;;;;;;9.10;99.90;;;;;;5172298;27;43811;-81
2022/02/16 06:20:47;;;;;;;;;;;9.10;99.90;;;;;;5172073;27;44061;-81
2022/02/16 06:23:14;;;;;;;;;;;9.10;99.90;;;;;;5172108;27;43302;-80
2022/02/16 06:25:41;;;;;;;;;;;9.10;99.90;;;;;;5172372;27;43600;-80
2022/02/16 06:28:08;;;;;;;;;;;9.10;99.90;;;;;;5173114;27;42802;-81
2022/02/16 06:30:35;;;;;;;;;;;9.10;99.90;;;;;;5171913;27;43633;-81
2022/02/16 06:33:03;;;;;;;;;;;9.10;99.90;;;;;;5173429;27;42809;-82
2022/02/16 06:35:30;;;;;;;;;;;9.10;99.90;;;;;;5171963;27;43377;-80
2022/02/16 06:37:57;;;;;;;;;;;9.10;99.90;;;;;;5172287;27;44696;-80
2022/02/16 06:40:26;;;;;;;;;;;9.10;99.90;;;;;;5172019;27;43939;-81
2022/02/16 06:42:54;;;;;;;;;;;9.10;99.90;;;;;;5172013;27;44013;-80
2022/02/16 06:45:21;;;;;;;;;;;9.10;99.90;;;;;;5173179;27;43902;-81
2022/02/16 06:47:48;;;;;;;;;;;9.10;99.90;;;;;;5171826;27;44267;-81
2022/02/16 06:50:15;;;;;;;;;;;9.10;99.90;;;;;;5172051;27;42869;-81
2022/02/16 06:52:42;;;;;;;;;;;9.10;99.90;;;;;;5173055;27;43306;-81
2022/02/16 06:55:11;;;;;;;;;;;9.10;99.90;;;;;;5172385;27;44380;-81
2022/02/16 06:57:38;;;;;;;;;;;9.10;99.90;;;;;;5172010;27;43276;-81
2022/02/16 07:00:06;;;;;;;;;;;9.10;99.90;;;;;;5171823;27;44371;-81
2022/02/16 07:02:43;;;;;;;;;;;9.10;99.90;;;;;;5171609;27;44712;-81
2022/02/16 07:05:10;;;;;;;;;;;9.10;99.90;;;;;;5173670;27;44290;-81
2022/02/16 07:07:37;;;;;;;;;;;9.10;99.90;;;;;;5172095;27;43210;-81
2022/02/16 07:10:05;;;;;;;;;;;9.10;99.90;;;;;;5171756;27;44137;-81
2022/02/16 07:12:35;;;;;;;;;;;9.20;99.90;;;;;;5171773;27;44025;-81
2022/02/16 07:15:03;;;;;;;;;;;9.10;99.90;;;;;;5173699;27;43127;-81
2022/02/16 07:17:31;;;;;;;;;;;9.20;99.90;;;;;;5171522;27;44520;-81
2022/02/16 07:19:58;;;;;;;;;;;9.20;99.90;;;;;;5172400;27;43530;-81
2022/02/16 07:22:25;;;;;;;;;;;9.20;99.90;;;;;;5172580;27;44053;-81
2022/02/16 07:24:52;;;;;;;;;;;9.20;99.90;;;;;;5171507;27;44711;-81
2022/02/16 07:27:22;;;;;;;;;;;9.20;99.90;;;;;;5172820;27;42932;-81
2022/02/16 07:29:49;;;;;;;;;;;9.20;99.90;;;;;;5172343;27;43984;-81
2022/02/16 07:32:16;;;;;;;;;;;9.20;99.90;;;;;;5171682;27;43477;-81
2022/02/16 07:34:43;;;;;;;;;;;9.20;99.90;;;;;;5171668;27;43239;-81
2022/02/16 07:37:10;;;;;;;;;;;9.20;99.90;;;;;;5173469;27;44249;-81
2022/02/16 07:39:37;;;;;;;;;;;9.20;99.90;;;;;;5172628;27;43621;-80
2022/02/16 07:42:04;;;;;;;;;;;9.20;99.90;;;;;;5171691;27;43071;-80
2022/02/16 07:44:32;;;;;;;;;;;9.20;99.90;;;;;;5172764;27;44111;-80
2022/02/16 07:46:59;;;;;;;;;;;9.20;99.90;;;;;;5173319;27;45171;-81
2022/02/16 07:49:28;;;;;;;;;;;9.20;99.90;;;;;;5172822;27;43829;-81
2022/02/16 07:51:55;;;;;;;;;;;9.30;99.90;;;;;;5171460;27;43913;-80
2022/02/16 07:54:25;;;;;;;;;;;9.30;99.90;;;;;;5171613;27;42287;-81
2022/02/16 07:56:54;;;;;;;;;;;9.30;99.90;;;;;;5173425;27;44103;-81
2022/02/16 07:59:23;;;;;;;;;;;9.30;99.90;;;;;;5172694;27;44168;-80
2022/02/16 08:01:50;;;;;;;;;;;9.30;99.90;;;;;;5172591;27;43414;-81
2022/02/16 08:04:17;;;;;;;;;;;9.30;99.90;;;;;;5171513;27;44924;-81
2022/02/16 08:06:47;;;;;;;;;;;9.30;99.90;;;;;;5172650;27;43388;-80
2022/02/16 08:09:15;;;;;;;;;;;9.30;99.90;;;;;;5171597;27;43204;-81
2022/02/16 08:11:43;;;;;;;;;;;9.30;99.90;;;;;;5172099;27;43927;-80
2022/02/16 08:14:10;;;;;;;;;;;9.30;99.90;;;;;;5172674;27;43563;-81
2022/02/16 08:16:37;;;;;;;;;;;9.30;99.90;;;;;;5172747;27;43472;-81
2022/02/16 08:19:05;;;;;;;;;;;9.30;99.90;;;;;;5173023;27;42008;-80
2022/02/16 08:21:33;;;;;;;;;;;9.30;99.90;;;;;;5172357;27;19993;-80
2022/02/16 08:24:00;;;;;;;;;;;9.30;99.90;;;;;;5171504;27;44142;-81
2022/02/16 08:26:27;;;;;;;;;;;9.30;99.90;;;;;;5172625;27;43671;-80
2022/02/16 08:28:55;;;;;;;;;;;9.30;99.90;;;;;;5171378;27;42700;-80
2022/02/16 08:31:22;;;;;;;;;;;9.40;99.90;;;;;;5171581;27;43220;-81
2022/02/16 08:33:49;;;;;;;;;;;9.40;99.90;;;;;;5171435;27;44215;-81
2022/02/16 08:36:16;;;;;;;;;;;9.40;99.90;;;;;;5171406;27;42981;-80
2022/02/16 08:38:43;;;;;;;;;;;9.40;99.90;;;;;;5172697;27;43877;-80
2022/02/16 08:41:13;;;;;;;;;;;9.40;99.90;;;;;;5171444;27;43317;-81
2022/02/16 08:43:41;;;;;;;;;;;9.40;99.90;;;;;;5173244;27;45768;-80
2022/02/16 08:46:08;;;;;;;;;;;9.40;99.90;;;;;;5172676;27;43495;-80
2022/02/16 08:48:38;;;;;;;;;;;9.40;99.90;;;;;;5171569;27;43233;-80
2022/02/16 08:51:05;;;;;;;;;;;9.40;99.90;;;;;;5173228;27;43306;-81
2022/02/16 08:53:32;;;;;;;;;;;9.40;99.90;;;;;;5172650;27;43460;-80
2022/02/16 08:55:59;;;;;;;;;;;9.40;99.90;;;;;;5172596;27;44295;-80
2022/02/16 08:58:27;;;;;;;;;;;9.40;99.90;;;;;;5172676;27;43543;-80
2022/02/16 09:00:54;;;;;;;;;;;9.40;99.90;;;;;;5173985;27;43517;-80
2022/02/16 09:03:22;;;;;;;;;;;9.40;99.90;;;;;;5172551;27;43268;-80
2022/02/16 09:05:51;;;;;;;;;;;9.40;99.90;;;;;;5172700;27;43822;-80
2022/02/16 09:08:19;;;;;;;;;;;9.50;99.90;;;;;;5173024;27;43255;-80
2022/02/16 09:10:47;;;;;;;;;;;9.40;99.90;;;;;;5172416;27;44929;-80
2022/02/16 09:13:14;;;;;;;;;;;9.40;99.90;;;;;;5172491;27;42941;-80
2022/02/16 09:15:41;;;;;;;;;;;9.40;99.90;;;;;;5172507;27;44245;-80
2022/02/16 09:18:09;;;;;;;;;;;9.50;99.90;;;;;;5174423;27;43950;-80
2022/02/16 09:20:36;;;;;;;;;;;9.50;99.90;;;;;;5173695;27;44319;-80
2022/02/16 09:23:03;;;;;;;;;;;9.50;99.90;;;;;;5173683;27;43761;-80
2022/02/16 09:25:31;;;;;;;;;;;9.50;99.90;;;;;;5244612;27;43041;-80
2022/02/16 09:27:59;;;;;;;;;;;9.50;99.90;;;;;;5172363;27;43857;-80
2022/02/16 09:30:29;;;;;;;;;;;9.50;99.90;;;;;;5173040;27;43964;-80
2022/02/16 09:32:56;;;;;;;;;;;9.50;99.90;;;;;;5173698;27;42702;-80
2022/02/16 09:35:23;;;;;;;;;;;9.50;99.90;;;;;;5173646;27;44234;-80
2022/02/16 09:37:52;;;;;;;;;;;9.50;99.90;;;;;;5243658;27;43534;-80
2022/02/16 09:40:19;;;;;;;;;;;9.50;99.90;;;;;;5172610;27;43696;-80
2022/02/16 09:42:47;;;;;;;;;;;9.50;99.90;;;;;;5173676;27;43266;-80
2022/02/16 09:45:15;;;;;;;;;;;9.50;99.90;;;;;;5173554;27;44255;-80
2022/02/16 09:47:43;;;;;;;;;;;9.50;99.90;;;;;;5172551;27;43227;-80
2022/02/16 09:50:11;;;;;;;;;;;9.50;99.90;;;;;;5173394;27;45725;-80
2022/02/16 09:52:39;;;;;;;;;;;9.50;99.90;;;;;;5172304;27;43905;-81
2022/02/16 09:55:06;;;;;;;;;;;9.60;99.90;;;;;;5172334;27;42865;-80
2022/02/16 09:57:33;;;;;;;;;;;9.60;99.90;;;;;;5172247;27;42834;-80
2022/02/16 10:00:02;;;;;;;;;;;9.60;99.90;;;;;;5172421;27;42737;-80
2022/02/16 10:02:34;;;;;;;;;;;9.60;99.90;;;;;;5171802;27;43951;-80
2022/02/16 10:05:02;;;;;;;;;;;9.60;99.90;;;;;;5173381;27;43326;-80
2022/02/16 10:07:33;;;;;;;;;;;9.60;99.90;;;;;;5173378;27;42283;-80
2022/02/16 10:10:39;;;;;;;;;;;9.60;99.90;;;;;;5172931;27;45784;-81
2022/02/16 10:13:21;;;;;;;;;;;9.60;99.90;;;;;;5109285;28;43499;-80
2022/02/16 10:15:49;;;;;;;;;;;9.70;99.90;;;;;;5150575;27;42519;-80
2022/02/16 10:18:18;;;;;;;;;;;9.70;99.90;;;;;;5172242;27;44090;-81
2022/02/16 10:20:46;;;;;;;;;;;9.70;99.90;;;;;;5172129;27;43207;-80
2022/02/16 10:23:15;;;;;;;;;;;9.70;99.90;;;;;;5174761;27;20030;-81
2022/02/16 10:25:49;;;;;;;;;;;9.70;99.90;;;;;;5171994;27;43029;-81
2022/02/16 10:28:18;;;;;;;;;;;9.70;99.90;;;;;;5171904;27;43535;-80
2022/02/16 10:30:55;;;;;;;;;;;9.70;99.90;;;;;;5173136;27;46123;-81
2022/02/16 10:33:29;;;;;;;;;;;9.70;99.90;;;;;;5172075;27;43254;-81
2022/02/16 10:36:00;;;;;;;;;;;9.80;99.90;;;;;;5172152;27;43145;-80
2022/02/16 10:38:27;;;;;;;;;;;9.80;99.90;;;;;;5171940;27;42843;-81
2022/02/16 10:41:07;;;;;;;;;;;9.80;99.90;;;;;;5172318;27;42426;-81
2022/02/16 10:43:38;;;;;;;;;;;9.80;99.90;;;;;;5173328;27;43936;-81
2022/02/16 10:46:22;;;;;;;;;;;9.80;99.90;;;;;;5173808;27;43596;-80
2022/02/16 10:49:09;;;;;;;;;;;9.90;99.90;;;;;;5171786;27;42744;-81
2022/02/16 10:52:15;;;;;;;;;;;9.90;99.90;;;;;;5172592;27;45229;-81
2022/02/16 10:54:58;;;;;;;;;;;9.90;99.90;;;;;;5173748;27;43724;-81
2022/02/16 10:57:31;;;;;;;;;;;9.90;99.90;;;;;;5173166;27;44595;-80
2022/02/16 10:59:58;;;;;;;;;;;9.90;99.90;;;;;;5172997;27;44025;-81
2022/02/16 11:02:26;;;;;;;;;;;9.90;99.90;;;;;;5172912;27;43890;-81
2022/02/16 11:04:53;;;;;;;;;;;10.00;99.90;;;;;;5172428;27;44209;-81
2022/02/16 11:07:27;;;;;;;;;;;10.00;99.90;;;;;;5173304;27;44019;-80
2022/02/16 11:10:00;;;;;;;;;;;10.00;99.90;;;;;;5173666;27;43972;-81
2022/02/16 11:12:27;;;;;;;;;;;10.00;99.90;;;;;;5171785;27;44259;-81
2022/02/16 11:14:55;;;;;;;;;;;10.00;99.90;;;;;;5173307;27;45986;-81
2022/02/16 11:17:25;;;;;;;;;;;10.00;99.90;;;;;;5172985;27;43240;-81
2022/02/16 11:20:13;;;;;;;;;;;10.00;99.90;;;;;;5173042;27;42532;-81
2022/02/16 11:22:57;;;;;;;;;;;10.10;99.90;;;;;;5147100;27;44039;-81
2022/02/16 11:25:31;;;;;;;;;;;10.00;99.90;;;;;;5171927;27;44119;-81
2022/02/16 11:27:59;;;;;;;;;;;10.10;99.90;;;;;;5172896;27;43648;-81
2022/02/16 11:30:31;;;;;;;;;;;10.10;99.90;;;;;;5171612;27;43846;-81
2022/02/16 11:33:17;;;;;;;;;;;10.10;99.90;;;;;;5171772;27;43530;-81
2022/02/16 11:35:46;;;;;;;;;;;10.10;99.90;;;;;;5172890;27;42887;-81
2022/02/16 11:38:15;;;;;;;;;;;10.20;99.90;;;;;;5171725;27;43872;-81
2022/02/16 11:40:53;;;;;;;;;;;10.10;99.90;;;;;;5172847;27;43888;-81
2022/02/16 11:43:40;;;;;;;;;;;10.10;99.90;;;;;;5173472;27;44281;-81
2022/02/16 11:46:07;;;;;;;;;;;10.20;99.90;;;;;;5172979;27;43099;-82
2022/02/16 11:48:36;;;;;;;;;;;10.20;99.90;;;;;;5172893;27;42676;-82
2022/02/16 11:51:22;;;;;;;;;;;10.20;99.90;;;;;;5171484;27;44233;-81
2022/02/16 11:53:49;;;;;;;;;;;10.20;99.90;;;;;;5172866;27;44944;-81
2022/02/16 11:56:21;;;;;;;;;;;10.20;99.90;;;;;;5173828;27;20007;-80
2022/02/16 11:59:06;;;;;;;;;;;10.20;99.90;;;;;;5173228;27;43504;-81
2022/02/16 12:01:33;;;;;;;;;;;10.30;99.90;;;;;;5171364;27;42840;-81
2022/02/16 12:04:00;;;;;;;;;;;10.30;99.90;;;;;;5243667;27;43923;-81
2022/02/16 12:06:36;;;;;;;;;;;10.30;99.90;;;;;;5173041;27;43818;-80
2022/02/16 12:09:05;;;;;;;;;;;10.30;99.90;;;;;;5244668;27;43469;-81
2022/02/16 12:11:32;;;;;;;;;;;10.30;99.90;;;;;;5172838;27;44258;-81
2022/02/16 12:14:02;;;;;;;;;;;10.30;99.90;;;;;;5173286;27;43950;-81
2022/02/16 12:16:29;;;;;;;;;;;10.30;99.90;;;;;;5173319;27;43247;-81
2022/02/16 12:19:00;;;;;;;;;;;10.30;99.90;;;;;;5172768;27;42994;-81
2022/02/16 12:21:29;;;;;;;;;;;10.40;99.90;;;;;;5173469;27;44250;-81
2022/02/16 12:24:01;;;;;;;;;;;10.30;99.90;;;;;;5171439;27;43024;-81
2022/02/16 12:26:37;;;;;;;;;;;10.40;99.90;;;;;;5174560;27;20011;-81
2022/02/16 12:29:06;;;;;;;;;;;10.40;99.90;;;;;;5174392;27;45039;-81
2022/02/16 12:31:35;;;;;;;;;;;10.30;99.90;;;;;;5173522;27;44746;-81
2022/02/16 12:34:15;;;;;;;;;;;10.40;99.90;;;;;;5174989;27;44048;-81
2022/02/16 12:36:46;;;;;;;;;;;10.40;99.90;;;;;;5174693;27;45396;-81
2022/02/16 12:39:19;;;;;;;;;;;10.40;99.90;;;;;;5174632;27;44252;-81
2022/02/16 12:41:46;;;;;;;;;;;10.40;99.90;;;;;;5173910;27;45842;-81
2022/02/16 12:44:15;;;;;;;;;;;10.40;99.90;;;;;;5173317;27;43656;-81
2022/02/16 12:46:47;;;;;;;;;;;10.40;99.90;;;;;;5173833;27;45597;-81
2022/02/16 12:49:15;;;;;;;;;;;10.40;99.90;;;;;;5173881;27;44970;-81
2022/02/16 12:51:43;;;;;;;;;;;10.40;99.90;;;;;;5172551;27;43955;-81
2022/02/16 12:54:12;;;;;;;;;;;10.40;99.90;;;;;;5172605;27;44273;-81
2022/02/16 12:56:47;;;;;;;;;;;10.50;99.90;;;;;;5175015;27;20026;-81
2022/02/16 12:59:14;;;;;;;;;;;10.50;99.90;;;;;;5172640;27;43501;-81
2022/02/16 13:01:41;;;;;;;;;;;10.50;99.90;;;;;;5244564;27;43874;-81
2022/02/16 13:04:14;;;;;;;;;;;10.50;99.90;;;;;;5174537;27;45982;-82
2022/02/16 13:06:45;;;;;;;;;;;10.50;99.90;;;;;;5174381;27;43646;-82
2022/02/16 13:09:13;;;;;;;;;;;10.50;99.90;;;;;;5172489;27;43121;-81
2022/02/16 13:11:47;;;;;;;;;;;10.50;99.90;;;;;;5173778;27;44045;-81
2022/02/16 13:14:14;;;;;;;;;;;10.50;99.90;;;;;;5174037;27;43749;-81
2022/02/16 13:16:50;;;;;;;;;;;10.50;99.90;;;;;;5173782;27;43360;-82
2022/02/16 13:19:36;;;;;;;;;;;10.50;99.90;;;;;;5173006;27;44633;-81
2022/02/16 13:22:03;;;;;;;;;;;10.50;99.90;;;;;;5172675;27;44302;-81
2022/02/16 13:24:30;;;;;;;;;;;10.50;99.90;;;;;;5173206;27;43885;-81
2022/02/16 13:27:07;;;;;;;;;;;10.50;99.90;;;;;;5175588;27;20004;-81
2022/02/16 13:29:34;;;;;;;;;;;10.50;99.90;;;;;;5172545;27;42331;-81
2022/02/16 13:32:04;;;;;;;;;;;10.50;99.90;;;;;;5172443;27;44027;-81
2022/02/16 13:34:48;;;;;;;;;;;10.60;99.90;;;;;;5172407;27;42732;-82
2022/02/16 13:37:15;;;;;;;;;;;10.60;99.90;;;;;;5172731;27;43996;-82
2022/02/16 13:39:42;;;;;;;;;;;10.60;99.90;;;;;;5173625;27;42812;-82
2022/02/16 13:42:14;;;;;;;;;;;10.60;99.90;;;;;;5172255;27;46154;-82
2022/02/16 13:44:41;;;;;;;;;;;10.60;99.90;;;;;;5173644;27;44330;-82
2022/02/16 13:47:28;;;;;;;;;;;10.60;99.90;;;;;;5174206;27;46248;-82
2022/02/16 13:50:00;;;;;;;;;;;10.60;99.90;;;;;;5173518;27;42815;-82
2022/02/16 13:52:34;;;;;;;;;;;10.70;99.90;;;;;;5173333;27;44162;-82
2022/02/16 13:55:01;;;;;;;;;;;10.70;99.90;;;;;;5173540;27;43488;-82
2022/02/16 13:57:30;;;;;;;;;;;10.70;99.90;;;;;;5174572;27;19989;-82
2022/02/16 13:59:59;;;;;;;;;;;10.70;99.90;;;;;;5172176;27;42542;-82
2022/02/16 14:02:27;;;;;;;;;;;10.70;99.90;;;;;;5173432;27;43098;-82
2022/02/16 14:04:58;;;;;;;;;;;10.70;99.90;;;;;;5173465;27;42645;-82
2022/02/16 14:07:29;;;;;;;;;;;10.70;99.90;;;;;;5173574;27;43324;-82
2022/02/16 14:10:13;;;;;;;;;;;10.70;99.90;;;;;;5174179;27;43946;-82
2022/02/16 14:12:41;;;;;;;;;;;10.70;99.90;;;;;;5173414;27;42797;-82
2022/02/16 14:15:08;;;;;;;;;;;10.70;99.90;;;;;;5172060;27;44069;-82
2022/02/16 14:17:36;;;;;;;;;;;10.70;99.90;;;;;;5173362;27;42967;-82
2022/02/16 14:20:03;;;;;;;;;;;10.70;99.90;;;;;;5172075;27;43139;-82
2022/02/16 14:22:33;;;;;;;;;;;10.70;99.90;;;;;;5172448;27;44211;-82
2022/02/16 14:25:00;;;;;;;;;;;10.70;99.90;;;;;;5244093;27;44153;-82
2022/02/16 14:27:27;;;;;;;;;;;10.70;99.90;;;;;;5173267;27;43318;-82
2022/02/16 14:29:54;;;;;;;;;;;10.70;99.90;;;;;;5173311;27;43560;-81
2022/02/16 14:32:22;;;;;;;;;;;10.70;99.90;;;;;;5173276;27;42795;-82
2022/02/16 14:34:49;;;;;;;;;;;10.70;99.90;;;;;;5171889;27;42664;-82
2022/02/16 14:37:16;;;;;;;;;;;10.70;99.90;;;;;;5171913;27;42316;-81